Time;durP1;ratioP1;P1;durP2;ratioP2;P2;SDS_P1;SDS_P2;PMS_P1;PMS_P2;Temp;Humidity;BMP_temperature;BMP_pressure;BME280_temperature;BME280_humidity;BME280_pressure;Samples;Min_cycle;Max_cycle;Signal;HPM_P1;HPM_P2
2022/03/23 00:00:38;;;;;;;36.53;19.90;;;;;;;3.51;61.31;97761.09;2075960;28;20579;-60
2022/03/23 00:01:40;;;;;;;33.75;19.40;;;;;;;3.59;61.04;97766.06;2078054;28;20205;-60
2022/03/23 00:02:41;;;;;;;37.13;20.08;;;;;;;3.55;61.01;97762.72;2077384;28;20383;-61
2022/03/23 00:03:43;;;;;;;35.35;20.50;;;;;;;3.48;61.33;97767.16;2079270;28;20204;-60
2022/03/23 00:04:45;;;;;;;36.10;19.60;;;;;;;3.42;61.35;97756.94;2077380;28;20557;-60
2022/03/23 00:05:46;;;;;;;39.22;20.80;;;;;;;3.44;61.28;97764.69;2077444;28;20585;-60
2022/03/23 00:06:48;;;;;;;34.55;19.60;;;;;;;3.44;61.42;97767.28;2078451;28;20198;-60
2022/03/23 00:07:50;;;;;;;46.42;20.27;;;;;;;3.34;61.72;97764.03;2078232;28;20204;-61
2022/03/23 00:08:51;;;;;;;32.90;19.30;;;;;;;3.36;61.89;97764.84;2076327;28;20208;-60
2022/03/23 00:09:52;;;;;;;41.13;20.13;;;;;;;3.34;61.96;97764.88;2075565;28;20194;-61
2022/03/23 00:10:58;;;;;;;37.63;21.45;;;;;;;3.34;62.16;97769.22;2074785;28;20287;-60
2022/03/23 00:12:00;;;;;;;45.45;20.85;;;;;;;3.54;61.54;97769.63;2077837;28;20216;-60
2022/03/23 00:13:03;;;;;;;33.33;19.08;;;;;;;3.51;61.50;97761.09;2077902;28;20209;-61
2022/03/23 00:14:06;;;;;;;35.22;20.23;;;;;;;3.53;61.63;97762.75;2077725;28;20197;-60
2022/03/23 00:15:08;;;;;;;36.88;20.33;;;;;;;3.45;61.85;97766.38;2075837;28;20241;-60
2022/03/23 00:16:09;;;;;;;41.50;20.80;;;;;;;3.35;62.23;97763.13;2077922;28;20676;-60
2022/03/23 00:17:10;;;;;;;49.53;21.00;;;;;;;3.32;62.37;97763.22;2076492;28;20287;-60
2022/03/23 00:18:13;;;;;;;37.28;20.30;;;;;;;3.26;62.61;97756.44;2077132;28;20213;-61
2022/03/23 00:19:16;;;;;;;36.08;20.10;;;;;;;3.26;62.80;97761.59;2076504;28;20205;-60
2022/03/23 00:20:17;;;;;;;34.28;20.63;;;;;;;3.26;62.69;97763.34;2076410;28;20198;-60
2022/03/23 00:21:25;;;;;;;34.65;18.83;;;;;;;3.26;62.68;97764.19;2076864;28;20224;-61
2022/03/23 00:22:27;;;;;;;39.92;21.48;;;;;;;3.36;62.56;97759.66;2076821;28;20197;-60
2022/03/23 00:23:29;;;;;;;34.90;19.30;;;;;;;3.39;62.22;97762.19;2077178;28;20201;-60
2022/03/23 00:24:31;;;;;;;39.40;18.95;;;;;;;3.25;62.59;97759.88;2077236;28;20823;-60
2022/03/23 00:25:33;;;;;;;33.90;20.20;;;;;;;3.30;62.40;97767.56;2076617;28;20239;-61
2022/03/23 00:26:35;;;;;;;35.83;18.83;;;;;;;3.32;62.32;97761.47;2077387;28;20194;-61
2022/03/23 00:27:36;;;;;;;33.88;19.52;;;;;;;3.27;62.57;97757.28;2077569;28;20259;-61
2022/03/23 00:28:37;;;;;;;33.40;18.40;;;;;;;3.19;62.72;97765.19;2077727;28;20189;-60
2022/03/23 00:29:39;;;;;;;33.70;19.58;;;;;;;3.23;62.49;97761.66;2075511;28;20585;-61
2022/03/23 00:30:41;;;;;;;34.75;20.30;;;;;;;3.26;62.61;97761.59;2076019;28;20225;-61
2022/03/23 00:32:02;;;;;;;30.52;18.85;;;;;;;3.21;63.04;97766.00;2080753;28;20628;-61
2022/03/23 00:33:05;;;;;;;34.50;19.77;;;;;;;3.34;62.62;97759.69;2074407;28;20572;-59
2022/03/23 00:34:06;;;;;;;34.38;19.15;;;;;;;3.29;62.77;97765.84;2077400;28;20197;-58
2022/03/23 00:35:08;;;;;;;33.35;17.83;;;;;;;3.13;63.01;97763.59;2075803;28;20198;-58
2022/03/23 00:36:10;;;;;;;33.80;18.75;;;;;;;3.20;62.63;97761.75;2078412;28;20276;-59
2022/03/23 00:37:11;;;;;;;41.70;20.30;;;;;;;3.03;63.19;97759.47;2077363;28;20196;-58
2022/03/23 00:38:13;;;;;;;35.28;17.58;;;;;;;2.97;63.58;97762.19;2078345;28;20209;-58
2022/03/23 00:39:15;;;;;;;36.60;19.42;;;;;;;3.08;63.00;97764.59;2076824;28;20197;-58
2022/03/23 00:40:16;;;;;;;40.75;19.88;;;;;;;3.06;63.33;97763.72;2078163;28;20197;-58
2022/03/23 00:41:18;;;;;;;33.95;19.83;;;;;;;2.94;63.65;97764.84;2077328;28;20201;-58
2022/03/23 00:42:19;;;;;;;38.95;18.20;;;;;;;2.91;63.56;97749.38;2078764;28;20201;-58
2022/03/23 00:43:21;;;;;;;39.78;20.83;;;;;;;2.81;63.65;97759.06;2075615;28;20202;-58
2022/03/23 00:44:23;;;;;;;38.80;19.52;;;;;;;2.83;63.58;97762.47;2077887;28;20201;-59
2022/03/23 00:45:24;;;;;;;37.15;20.10;;;;;;;2.86;63.75;97756.38;2077050;28;20243;-58
2022/03/23 00:46:26;;;;;;;34.58;19.40;;;;;;;2.95;63.42;97756.19;2077463;28;20198;-58
2022/03/23 00:47:29;;;;;;;40.20;19.85;;;;;;;2.97;63.02;97764.78;2077657;28;20197;-58
2022/03/23 00:48:30;;;;;;;36.58;19.85;;;;;;;2.96;63.31;97765.69;2076580;28;20197;-59
2022/03/23 00:49:32;;;;;;;39.17;19.85;;;;;;;3.07;62.85;97765.47;2078599;28;20225;-60
2022/03/23 00:50:34;;;;;;;41.30;19.27;;;;;;;3.07;63.01;97760.28;2076522;28;20250;-60
2022/03/23 00:51:35;;;;;;;33.75;18.88;;;;;;;3.04;62.85;97760.31;2078069;28;20801;-60
2022/03/23 00:52:37;;;;;;;36.30;19.85;;;;;;;2.97;63.27;97765.63;2078923;28;20708;-60
2022/03/23 00:53:38;;;;;;;37.95;20.30;;;;;;;2.90;63.58;97768.38;2075579;28;20527;-61
2022/03/23 00:54:40;;;;;;;33.08;19.50;;;;;;;2.85;63.85;97768.47;2077116;28;20236;-60
2022/03/23 00:55:41;;;;;;;37.42;19.33;;;;;;;2.82;63.64;97765.94;2075856;28;20669;-61
2022/03/23 00:56:43;;;;;;;38.50;20.30;;;;;;;2.82;63.86;97760.75;2077306;28;20200;-61
2022/03/23 00:57:45;;;;;;;33.92;18.75;;;;;;;2.80;63.62;97761.66;2077794;28;20650;-60
2022/03/23 00:58:46;;;;;;;40.88;18.45;;;;;;;2.85;63.58;97759.84;2076929;28;20220;-61
2022/03/23 00:59:47;;;;;;;34.03;19.80;;;;;;;2.81;63.61;97759.06;2075625;28;20201;-60
2022/03/23 01:00:49;;;;;;;41.20;19.08;;;;;;;2.69;63.87;97754.97;2074796;28;20711;-61
2022/03/23 01:01:51;;;;;;;39.97;19.27;;;;;;;2.63;64.10;97759.44;2074362;28;20285;-60
2022/03/23 01:02:53;;;;;;;39.58;18.73;;;;;;;2.61;64.40;97758.56;2076039;28;20190;-60
2022/03/23 01:03:55;;;;;;;36.75;19.30;;;;;;;2.63;64.68;97757.69;2077258;28;20690;-60
2022/03/23 01:04:56;;;;;;;33.08;20.25;;;;;;;2.67;64.25;97759.31;2077847;28;20526;-60
2022/03/23 01:05:58;;;;;;;39.30;19.48;;;;;;;2.73;64.26;97755.78;2075023;28;20229;-60
2022/03/23 01:06:59;;;;;;;36.17;21.25;;;;;;;2.69;64.35;97760.16;2077319;28;20544;-60
2022/03/23 01:08:01;;;;;;;35.35;18.45;;;;;;;2.71;64.12;97757.53;2076425;28;20585;-61
2022/03/23 01:09:02;;;;;;;34.28;18.88;;;;;;;2.71;64.10;97757.53;2077156;28;20212;-61
2022/03/23 01:10:06;;;;;;;34.75;19.05;;;;;;;2.69;64.35;97761.88;2077713;28;20671;-60
2022/03/23 01:11:07;;;;;;;38.58;20.17;;;;;;;2.84;64.02;97758.13;2076565;28;20720;-60
2022/03/23 01:12:10;;;;;;;36.80;18.95;;;;;;;2.85;64.00;97757.28;2078545;28;20204;-60
2022/03/23 01:13:11;;;;;;;36.80;19.95;;;;;;;2.82;63.80;97754.72;2075181;28;20201;-60
2022/03/23 01:14:13;;;;;;;44.97;20.50;;;;;;;2.86;63.98;97761.53;2077279;28;20220;-60
2022/03/23 01:15:17;;;;;;;34.97;19.73;;;;;;;2.77;63.93;97760.00;2077012;28;20204;-60
2022/03/23 01:16:18;;;;;;;37.63;18.10;;;;;;;2.76;63.94;97758.28;2076083;28;20219;-60
2022/03/23 01:17:20;;;;;;;32.97;18.10;;;;;;;2.78;63.73;97764.28;2077915;28;20197;-60
2022/03/23 01:18:22;;;;;;;33.88;19.55;;;;;;;2.80;63.80;97761.66;2077706;28;20202;-60
2022/03/23 01:19:27;;;;;;;52.35;18.38;;;;;;;2.86;63.42;97756.38;2073263;28;20225;-60
2022/03/23 01:20:30;;;;;;;38.75;19.00;;;;;;;2.85;63.60;97760.72;2076969;28;20197;-60
2022/03/23 01:21:32;;;;;;;36.33;18.88;;;;;;;2.76;63.66;97753.09;2075489;28;20213;-60
2022/03/23 01:22:34;;;;;;;48.30;20.58;;;;;;;2.71;63.68;97754.94;2078762;28;20190;-59
2022/03/23 01:23:36;;;;;;;33.50;19.77;;;;;;;2.70;64.01;97754.06;2075485;28;20200;-60
2022/03/23 01:24:37;;;;;;;32.25;19.30;;;;;;;2.67;64.33;97753.31;2078008;28;20220;-60
2022/03/23 01:25:39;;;;;;;40.97;20.25;;;;;;;2.70;64.56;97756.66;2074398;28;20226;-60
2022/03/23 01:26:40;;;;;;;35.92;18.80;;;;;;;2.73;63.99;97755.78;2073448;28;20202;-60
2022/03/23 01:27:43;;;;;;;38.10;20.48;;;;;;;2.74;63.82;97754.88;2075142;28;20212;-60
2022/03/23 01:28:45;;;;;;;30.20;19.05;;;;;;;2.71;64.17;97758.38;2074055;28;20190;-60
2022/03/23 01:29:46;;;;;;;36.25;19.65;;;;;;;2.59;64.57;97756.03;2076881;28;20197;-60
2022/03/23 01:30:48;;;;;;;35.08;17.85;;;;;;;2.58;64.37;97750.00;2076619;28;20678;-60
2022/03/23 01:31:49;;;;;;;32.65;20.00;;;;;;;2.63;64.65;97759.44;2077609;28;20189;-60
2022/03/23 01:32:50;;;;;;;34.17;19.10;;;;;;;2.66;64.25;97756.75;2076599;28;20197;-60
2022/03/23 01:33:59;;;;;;;35.67;19.92;;;;;;;2.50;64.74;97758.78;2079264;28;20197;-60
2022/03/23 01:35:01;;;;;;;34.08;20.05;;;;;;;2.40;65.17;97754.66;2077685;28;20197;-60
2022/03/23 01:36:03;;;;;;;32.00;17.67;;;;;;;2.41;65.51;97749.47;2072363;28;20279;-60
2022/03/23 01:37:04;;;;;;;36.70;20.50;;;;;;;2.29;65.55;97755.69;2076398;28;20543;-60
2022/03/23 01:38:06;;;;;;;34.92;19.60;;;;;;;2.25;65.60;97753.19;2078616;28;20202;-60
2022/03/23 01:39:07;;;;;;;37.85;20.60;;;;;;;2.30;65.64;97752.22;2076058;28;20221;-60
2022/03/23 01:40:11;;;;;;;34.08;18.88;;;;;;;2.21;65.43;97748.94;2077607;28;20632;-60
2022/03/23 01:41:13;;;;;;;38.03;21.30;;;;;;;2.18;65.79;97748.13;2074049;28;20228;-60
2022/03/23 01:42:14;;;;;;;34.15;18.38;;;;;;;2.06;66.16;97748.34;2076655;28;20201;-60
2022/03/23 01:43:16;;;;;;;34.47;19.58;;;;;;;1.96;65.97;97752.81;2077190;28;20221;-60
2022/03/23 01:44:20;;;;;;;35.28;19.85;;;;;;;1.93;66.11;97752.00;2075327;28;20220;-60
2022/03/23 01:45:22;;;;;;;28.77;18.15;;;;;;;2.01;66.21;97749.28;2076959;28;20755;-60
2022/03/23 01:46:26;;;;;;;34.70;18.83;;;;;;;2.02;66.25;97753.56;2077109;28;20697;-60
2022/03/23 01:47:27;;;;;;;38.38;18.85;;;;;;;2.04;66.20;97756.97;2075472;28;20707;-60
2022/03/23 01:48:29;;;;;;;37.33;19.27;;;;;;;2.04;66.37;97752.69;2075412;28;20194;-60
2022/03/23 01:49:31;;;;;;;34.85;20.38;;;;;;;2.17;66.13;97754.16;2076310;28;20197;-61
2022/03/23 01:50:33;;;;;;;33.72;17.60;;;;;;;2.15;66.01;97750.75;2076790;28;20235;-60
2022/03/23 01:51:34;;;;;;;37.88;18.40;;;;;;;2.15;65.82;97750.75;2078477;28;20201;-61
2022/03/23 01:52:38;;;;;;;38.97;18.20;;;;;;;2.26;65.78;97752.31;2076964;28;20561;-60
2022/03/23 01:53:40;;;;;;;34.42;18.52;;;;;;;2.25;65.62;97753.19;2076799;28;20190;-60
2022/03/23 01:54:42;;;;;;;40.17;18.75;;;;;;;2.22;65.76;97748.09;2075716;28;20190;-60
2022/03/23 01:55:45;;;;;;;39.72;18.95;;;;;;;2.20;65.83;97755.00;2078691;28;20635;-60
2022/03/23 01:56:48;;;;;;;38.40;19.52;;;;;;;2.11;66.09;97746.50;2075277;28;20204;-60
2022/03/23 01:57:52;;;;;;;31.55;17.50;;;;;;;2.14;65.80;97746.47;2077667;28;20663;-60
2022/03/23 01:58:54;;;;;;;35.22;17.98;;;;;;;2.18;65.53;97742.97;2077044;28;20198;-61
2022/03/23 01:59:55;;;;;;;31.98;17.63;;;;;;;2.10;65.18;97734.50;2076163;28;20576;-60
2022/03/23 02:00:57;;;;;;;36.08;18.42;;;;;;;2.21;65.04;97747.22;2074852;28;20226;-60
2022/03/23 02:02:00;;;;;;;33.75;18.45;;;;;;;2.14;65.24;97751.66;2075185;28;20649;-60
2022/03/23 02:03:03;;;;;;;34.40;17.48;;;;;;;2.18;64.97;97748.13;2074711;28;20194;-60
2022/03/23 02:04:05;;;;;;;36.47;17.75;;;;;;;2.23;65.15;97752.34;2077288;28;20209;-61
2022/03/23 02:05:06;;;;;;;36.40;19.05;;;;;;;2.16;65.19;97747.31;2075440;28;20208;-60
2022/03/23 02:06:08;;;;;;;39.42;19.17;;;;;;;2.16;65.52;97746.47;2077470;28;20227;-60
2022/03/23 02:07:10;;;;;;;41.90;19.80;;;;;;;2.13;65.37;97743.91;2078595;28;20208;-60
2022/03/23 02:08:11;;;;;;;35.22;19.45;;;;;;;2.12;65.67;97743.06;2078781;28;20197;-60
2022/03/23 02:09:13;;;;;;;32.33;17.73;;;;;;;2.23;65.57;97752.34;2077315;28;20204;-60
2022/03/23 02:10:15;;;;;;;35.60;18.70;;;;;;;2.18;65.56;97748.13;2075092;28;20193;-60
2022/03/23 02:11:17;;;;;;;33.55;18.20;;;;;;;2.12;65.75;97750.81;2074897;28;20212;-60
2022/03/23 02:12:19;;;;;;;32.00;18.25;;;;;;;2.04;66.29;97750.09;2075198;28;20796;-60
2022/03/23 02:13:21;;;;;;;36.35;18.58;;;;;;;1.97;66.44;97746.75;2074357;28;20198;-60
2022/03/23 02:14:23;;;;;;;35.97;18.95;;;;;;;1.89;66.62;97748.59;2075546;28;20224;-61
2022/03/23 02:15:26;;;;;;;29.70;17.08;;;;;;;1.80;67.23;97750.47;2075836;28;20202;-60
2022/03/23 02:16:28;;;;;;;44.60;19.00;;;;;;;1.84;66.96;97752.13;2077311;28;20193;-60
2022/03/23 02:17:29;;;;;;;38.85;20.63;;;;;;;1.92;67.00;97745.09;2076129;28;20288;-60
2022/03/23 02:18:31;;;;;;;39.58;18.33;;;;;;;2.06;65.92;97734.53;2076903;28;20531;-60
2022/03/23 02:19:34;;;;;;;31.33;18.27;;;;;;;1.91;66.65;97746.84;2076906;28;20217;-60
2022/03/23 02:20:37;;;;;;;35.40;18.65;;;;;;;1.89;66.56;97740.84;2076630;28;20691;-60
2022/03/23 02:21:44;;;;;;;41.30;19.42;;;;;;;1.89;66.94;97740.00;2076401;28;20199;-60
2022/03/23 02:22:46;;;;;;;37.67;18.83;;;;;;;1.90;66.62;97746.88;2085591;28;20215;-61
2022/03/23 02:23:48;;;;;;;28.55;17.13;;;;;;;1.83;66.77;97742.69;2084838;28;20199;-60
2022/03/23 02:24:50;;;;;;;36.22;18.17;;;;;;;1.81;67.18;97747.03;2073285;28;20208;-60
2022/03/23 02:25:59;;;;;;;36.38;18.38;;;;;;;1.78;66.96;97743.63;2079218;28;21097;-60
2022/03/23 02:27:01;;;;;;;37.75;19.27;;;;;;;1.78;66.91;97740.16;2075147;28;20323;-60
2022/03/23 02:28:07;;;;;;;47.08;18.65;;;;;;;1.93;66.61;97741.66;2074981;28;20201;-59
2022/03/23 02:29:09;;;;;;;30.02;17.73;;;;;;;1.75;66.82;97732.47;2074765;28;20201;-60
2022/03/23 02:30:11;;;;;;;33.88;19.38;;;;;;;1.95;66.63;97740.75;2073666;28;20206;-60
2022/03/23 02:31:12;;;;;;;34.30;18.92;;;;;;;1.99;66.54;97744.13;2075607;28;20218;-60
2022/03/23 02:32:14;;;;;;;33.05;18.67;;;;;;;1.93;66.73;97741.66;2075223;28;20213;-60
2022/03/23 02:33:21;;;;;;;33.72;19.85;;;;;;;1.83;66.98;97742.69;2075846;28;20561;-61
2022/03/23 02:34:25;;;;;;;33.13;19.65;;;;;;;1.80;67.15;97738.41;2076495;28;20703;-60
2022/03/23 02:35:30;;;;;;;33.78;18.48;;;;;;;1.81;67.08;97736.69;2074044;28;20201;-60
2022/03/23 02:36:32;;;;;;;40.78;18.60;;;;;;;1.83;67.14;97742.69;2075658;28;20546;-60
2022/03/23 02:37:35;;;;;;;35.42;19.15;;;;;;;1.83;66.82;97737.53;2078505;28;20197;-60
2022/03/23 02:38:37;;;;;;;35.83;18.17;;;;;;;1.84;67.11;97739.22;2077173;28;20194;-60
2022/03/23 02:39:38;;;;;;;32.80;19.35;;;;;;;1.77;66.99;97744.47;2074549;28;20205;-61
2022/03/23 02:40:40;;;;;;;37.83;19.95;;;;;;;1.74;67.32;97746.25;2076303;28;20595;-61
2022/03/23 02:41:41;;;;;;;45.38;19.30;;;;;;;1.66;67.80;97743.78;2076017;28;20541;-61
2022/03/23 02:42:43;;;;;;;40.38;19.73;;;;;;;1.67;67.38;97745.50;2076400;28;20197;-61
2022/03/23 02:43:44;;;;;;;32.70;18.73;;;;;;;1.64;67.59;97739.53;2075634;28;20193;-61
2022/03/23 02:44:46;;;;;;;36.83;19.23;;;;;;;1.65;67.66;97747.25;2075210;28;20661;-61
2022/03/23 02:45:47;;;;;;;41.60;20.13;;;;;;;1.62;67.70;97743.88;2076331;28;20232;-61
2022/03/23 02:46:49;;;;;;;38.53;19.02;;;;;;;1.65;67.81;97743.84;2076293;28;20190;-61
2022/03/23 02:47:50;;;;;;;34.90;19.30;;;;;;;1.60;67.43;97746.47;2076519;28;20194;-61
2022/03/23 02:48:52;;;;;;;34.97;19.17;;;;;;;1.57;67.72;97743.94;2077005;28;20193;-61
2022/03/23 02:49:53;;;;;;;34.30;18.23;;;;;;;1.57;68.02;97751.69;2076514;28;20197;-61
2022/03/23 02:50:55;;;;;;;31.55;18.92;;;;;;;1.59;67.71;97747.34;2074280;28;20217;-61
2022/03/23 02:51:56;;;;;;;31.27;17.58;;;;;;;1.53;67.95;97747.41;2077253;28;20204;-61
2022/03/23 03:02:21;;;;;;;37.40;17.90;;;;;;;1.55;67.68;97746.53;2076728;28;20289;-58
2022/03/23 03:03:24;;;;;;;39.58;17.52;;;;;;;1.44;67.99;97755.31;2076274;28;20275;-58
2022/03/23 03:04:26;;;;;;;33.05;17.58;;;;;;;1.35;68.22;97754.56;2079110;28;20766;-58
2022/03/23 03:05:27;;;;;;;39.75;19.33;;;;;;;1.31;68.39;97745.16;2073003;28;20204;-61
2022/03/23 03:06:28;;;;;;;38.60;17.55;;;;;;;1.35;68.71;97752.00;2073826;28;20201;-61
2022/03/23 03:08:44;;;;;;;32.95;17.73;;;;;;;1.37;68.48;97754.53;2078150;28;20197;-61
2022/03/23 03:08:52;;;;;;;33.25;17.73;;;;;;;1.47;68.75;97753.56;2077559;28;20594;-61
2022/03/23 03:09:53;;;;;;;31.25;18.08;;;;;;;1.51;68.25;97754.34;2075256;28;20285;-61
2022/03/23 03:10:55;;;;;;;33.47;16.45;;;;;;;1.47;68.29;97752.69;2075717;28;20229;-60
2022/03/23 03:11:57;;;;;;;29.92;18.30;;;;;;;1.40;68.50;97756.25;2077031;28;20216;-61
2022/03/23 03:12:59;;;;;;;33.63;17.92;;;;;;;1.47;68.10;97757.84;2077692;28;20193;-61
2022/03/23 03:14:01;;;;;;;32.83;17.95;;;;;;;1.48;68.16;97756.97;2073758;28;20603;-61
2022/03/23 03:15:02;;;;;;;33.83;18.88;;;;;;;1.42;68.61;97762.22;2077548;28;20228;-61
2022/03/23 03:16:05;;;;;;;36.78;18.75;;;;;;;1.42;68.38;97764.81;2076326;28;20263;-61
2022/03/23 03:17:07;;;;;;;43.08;19.88;;;;;;;1.37;68.31;97760.56;2076887;28;20551;-60
2022/03/23 03:18:09;;;;;;;32.85;18.08;;;;;;;1.40;68.71;97756.25;2076304;28;20197;-61
2022/03/23 03:19:12;;;;;;;33.40;18.55;;;;;;;1.41;68.85;97758.78;2076072;28;20197;-61
2022/03/23 03:20:15;;;;;;;40.00;19.40;;;;;;;1.47;68.45;97758.72;2075795;28;20502;-61
2022/03/23 03:21:17;;;;;;;36.22;17.40;;;;;;;1.44;68.82;97760.47;2076930;28;20209;-61
2022/03/23 03:22:19;;;;;;;37.58;17.83;;;;;;;1.41;69.16;97763.94;2074260;28;20206;-61
2022/03/23 03:23:22;;;;;;;33.22;17.60;;;;;;;1.34;69.01;97768.34;2076571;28;20197;-58
2022/03/23 03:24:23;;;;;;;35.47;18.50;;;;;;;1.40;69.32;97766.56;2076511;28;20198;-58
2022/03/23 03:25:24;;;;;;;29.35;17.27;;;;;;;1.45;68.82;97755.31;2075521;28;20197;-58
2022/03/23 03:26:26;;;;;;;29.42;16.98;;;;;;;1.39;68.70;97760.53;2075298;28;20198;-58
2022/03/23 03:27:31;;;;;;;38.47;18.38;;;;;;;1.40;68.88;97761.41;2076788;28;20607;-58
2022/03/23 03:28:37;;;;;;;34.53;19.77;;;;;;;1.45;68.71;97765.63;2076920;28;20201;-58
2022/03/23 03:29:38;;;;;;;33.40;18.70;;;;;;;1.42;68.41;97759.66;2076502;28;20820;-58
2022/03/23 03:30:39;;;;;;;31.42;17.58;;;;;;;1.40;68.87;97762.25;2077904;28;20280;-59
2022/03/23 03:31:41;;;;;;;36.95;19.70;;;;;;;1.50;68.49;97763.81;2077865;28;20193;-58
2022/03/23 03:32:44;;;;;;;35.72;18.02;;;;;;;1.52;68.37;97756.06;2077810;28;20197;-58
2022/03/23 03:33:46;;;;;;;29.90;17.77;;;;;;;1.44;68.64;97763.06;2076197;28;20202;-59
2022/03/23 03:34:47;;;;;;;35.42;18.50;;;;;;;1.37;68.80;97764.84;2074341;28;20674;-58
2022/03/23 03:35:49;;;;;;;31.40;18.20;;;;;;;1.34;68.89;97767.50;2077398;28;20221;-58
2022/03/23 03:36:50;;;;;;;37.00;18.63;;;;;;;1.33;68.80;97761.50;2076293;28;20197;-59
2022/03/23 03:37:52;;;;;;;32.50;16.77;;;;;;;1.46;68.18;97766.47;2076130;28;20200;-58
2022/03/23 03:38:58;;;;;;;38.30;18.15;;;;;;;1.49;68.31;97769.00;2076526;28;20870;-58
2022/03/23 03:40:00;;;;;;;32.25;17.35;;;;;;;1.44;68.46;97766.50;2076945;28;20200;-59
2022/03/23 03:41:03;;;;;;;36.28;17.63;;;;;;;1.44;68.34;97763.91;2074356;28;20253;-58
2022/03/23 03:42:07;;;;;;;31.25;17.08;;;;;;;1.41;68.86;97763.09;2076150;28;20202;-58
2022/03/23 03:43:08;;;;;;;32.10;17.10;;;;;;;1.38;68.82;97766.56;2075429;28;20200;-58
2022/03/23 03:44:11;;;;;;;32.67;18.08;;;;;;;1.30;68.77;97766.69;2074256;28;20189;-59
2022/03/23 03:45:13;;;;;;;35.40;17.55;;;;;;;1.30;68.79;97768.41;2075913;28;20216;-58
2022/03/23 03:46:14;;;;;;;36.67;19.25;;;;;;;1.26;69.16;97767.59;2077306;28;20221;-58
2022/03/23 03:47:16;;;;;;;28.73;15.93;;;;;;;1.23;69.59;97770.19;2075704;28;20198;-58
2022/03/23 03:48:17;;;;;;;31.85;18.88;;;;;;;1.31;69.33;97767.53;2077059;28;20220;-58
2022/03/23 03:49:19;;;;;;;30.73;18.02;;;;;;;1.29;69.19;97759.78;2076164;28;20200;-58
2022/03/23 03:50:21;;;;;;;33.70;18.92;;;;;;;1.20;69.83;97770.25;2076369;28;20197;-59
2022/03/23 03:51:23;;;;;;;39.05;20.00;;;;;;;1.12;69.56;97767.78;2076646;28;20227;-58
2022/03/23 03:52:24;;;;;;;30.85;17.58;;;;;;;1.13;69.96;97768.63;2076625;28;20217;-58
2022/03/23 03:53:26;;;;;;;32.38;17.92;;;;;;;0.97;70.27;97762.78;2075779;28;20202;-58
2022/03/23 03:54:39;;;;;;;31.65;16.67;;;;;;;1.03;70.08;97770.47;2076787;28;20220;-58
2022/03/23 03:55:41;;;;;;;34.65;18.75;;;;;;;0.81;70.08;97769.88;2077138;28;20796;-58
2022/03/23 03:56:43;;;;;;;34.30;19.55;;;;;;;1.02;70.00;97773.06;2075982;28;20677;-58
2022/03/23 03:57:44;;;;;;;32.28;17.38;;;;;;;0.92;70.47;97770.59;2073730;28;20197;-58
2022/03/23 03:58:46;;;;;;;28.42;16.25;;;;;;;0.99;69.50;97769.63;2076873;28;20197;-58
2022/03/23 03:59:47;;;;;;;32.22;18.33;;;;;;;1.07;69.53;97773.84;2077682;28;20200;-58
2022/03/23 04:00:48;;;;;;;29.35;16.55;;;;;;;1.09;69.25;97772.97;2073634;28;20225;-58
2022/03/23 04:01:50;;;;;;;30.42;16.98;;;;;;;1.15;69.14;97772.03;2075162;28;20204;-58
2022/03/23 04:02:52;;;;;;;30.55;16.45;;;;;;;1.13;69.47;97771.19;2075367;28;20197;-58
2022/03/23 04:03:54;;;;;;;36.88;17.83;;;;;;;1.02;69.54;97773.94;2074690;28;20216;-58
2022/03/23 04:04:55;;;;;;;29.63;17.30;;;;;;;1.08;69.86;97770.41;2076092;28;20193;-58
2022/03/23 04:05:57;;;;;;;36.75;18.67;;;;;;;1.09;69.78;97772.13;2076056;28;20232;-58
2022/03/23 04:06:59;;;;;;;27.00;15.30;;;;;;;1.02;69.76;97776.50;2076220;28;20209;-58
2022/03/23 04:08:01;;;;;;;30.38;17.15;;;;;;;1.01;69.73;97771.38;2076105;28;20221;-58
2022/03/23 04:09:03;;;;;;;37.35;17.52;;;;;;;0.98;70.18;97773.09;2077031;28;20204;-58
2022/03/23 04:10:05;;;;;;;27.70;17.02;;;;;;;0.98;70.16;97769.66;2075461;28;20201;-58
2022/03/23 04:11:07;;;;;;;31.67;19.50;;;;;;;0.99;70.05;97768.78;2075519;28;20572;-58
2022/03/23 04:12:09;;;;;;;42.75;18.52;;;;;;;1.05;70.20;97765.28;2077647;28;20193;-59
2022/03/23 04:13:10;;;;;;;34.60;17.33;;;;;;;1.11;69.91;97770.38;2076976;28;20201;-59
2022/03/23 04:14:12;;;;;;;30.30;16.90;;;;;;;1.07;69.97;97774.72;2076741;28;20202;-58
2022/03/23 04:15:14;;;;;;;32.38;18.65;;;;;;;1.07;70.03;97772.13;2074241;28;20229;-59
2022/03/23 04:16:16;;;;;;;35.05;18.77;;;;;;;0.91;70.69;97768.88;2075056;28;20212;-58
2022/03/23 04:17:17;;;;;;;28.75;17.00;;;;;;;0.95;70.74;97770.56;2076323;28;20202;-58
2022/03/23 04:18:19;;;;;;;35.78;17.90;;;;;;;1.03;70.38;97773.03;2077202;28;20201;-58
2022/03/23 04:19:20;;;;;;;39.03;18.00;;;;;;;1.02;70.07;97768.78;2075243;28;20686;-58
2022/03/23 04:20:22;;;;;;;36.00;17.45;;;;;;;0.93;70.52;97772.28;2073714;28;20208;-58
2022/03/23 04:21:24;;;;;;;41.75;17.08;;;;;;;0.96;70.08;97768.81;2073609;28;20205;-58
2022/03/23 04:22:26;;;;;;;37.35;18.35;;;;;;;0.93;70.27;97769.72;2074943;28;20228;-58
2022/03/23 04:23:27;;;;;;;35.78;18.23;;;;;;;0.89;70.23;97773.19;2074130;28;20759;-58
2022/03/23 04:24:28;;;;;;;32.35;16.67;;;;;;;0.90;69.93;97772.34;2074941;28;20561;-58
2022/03/23 04:25:30;;;;;;;32.15;17.40;;;;;;;0.79;69.14;97762.13;2076338;28;20208;-58
2022/03/23 04:26:31;;;;;;;32.35;15.90;;;;;;;0.74;69.03;97773.38;2078086;28;20665;-58
2022/03/23 04:27:34;;;;;;;30.30;16.17;;;;;;;0.64;69.21;97769.19;2072909;28;20277;-58
2022/03/23 04:28:35;;;;;;;32.90;17.20;;;;;;;0.68;69.38;97768.28;2075145;28;20209;-58
2022/03/23 04:29:37;;;;;;;29.58;16.92;;;;;;;0.79;69.76;97774.19;2076226;28;20197;-58
2022/03/23 04:30:39;;;;;;;31.27;17.30;;;;;;;0.89;69.11;97775.78;2076658;28;20221;-58
2022/03/23 04:31:40;;;;;;;38.10;16.95;;;;;;;0.90;69.29;97774.06;2073619;28;20236;-58
2022/03/23 04:32:42;;;;;;;36.30;17.95;;;;;;;0.96;69.01;97773.97;2077507;28;20197;-58
2022/03/23 04:33:44;;;;;;;30.25;17.23;;;;;;;0.86;68.92;97778.38;2076454;28;20205;-58
2022/03/23 04:34:45;;;;;;;37.92;18.40;;;;;;;0.75;69.73;97773.38;2076677;28;20204;-58
2022/03/23 04:35:47;;;;;;;31.27;16.40;;;;;;;0.78;69.77;97775.03;2075174;28;20229;-58
2022/03/23 04:36:48;;;;;;;31.20;16.58;;;;;;;0.79;69.74;97769.88;2076242;28;20196;-58
2022/03/23 04:37:50;;;;;;;26.58;15.63;;;;;;;0.78;69.86;97777.63;2077806;28;20198;-58
2022/03/23 04:38:52;;;;;;;30.17;15.70;;;;;;;0.75;70.10;97772.53;2075742;28;20198;-58
2022/03/23 04:39:54;;;;;;;32.08;17.75;;;;;;;0.74;69.97;97773.38;2078619;28;20204;-58
2022/03/23 04:40:56;;;;;;;37.10;18.33;;;;;;;0.68;70.34;97774.28;2077265;28;20845;-58
2022/03/23 04:41:58;;;;;;;25.73;16.08;;;;;;;0.66;70.32;97780.34;2076785;28;20644;-58
2022/03/23 04:42:59;;;;;;;28.75;16.80;;;;;;;0.70;70.44;97777.69;2077320;28;20232;-58
2022/03/23 04:44:01;;;;;;;31.95;15.98;;;;;;;0.64;70.56;97780.34;2076783;28;20289;-58
2022/03/23 04:45:04;;;;;;;29.90;17.00;;;;;;;0.67;70.58;97771.75;2075423;28;20212;-58
2022/03/23 04:46:05;;;;;;;30.67;16.20;;;;;;;0.71;70.55;97779.44;2078442;28;20225;-58
2022/03/23 04:47:07;;;;;;;35.53;16.13;;;;;;;0.72;70.33;97780.28;2077784;28;20209;-58
2022/03/23 04:48:08;;;;;;;27.58;16.98;;;;;;;0.68;70.41;97776.03;2077743;28;20209;-58
2022/03/23 04:49:10;;;;;;;30.95;16.95;;;;;;;0.71;70.67;97786.31;2076821;28;20578;-57
2022/03/23 04:50:13;;;;;;;35.35;16.80;;;;;;;0.62;70.39;97776.09;2077361;28;20201;-58
2022/03/23 04:51:14;;;;;;;37.40;18.35;;;;;;;0.70;70.53;97779.44;2076033;28;20225;-58
2022/03/23 04:52:16;;;;;;;31.60;16.10;;;;;;;0.58;70.69;97773.53;2077001;28;20194;-58
2022/03/23 04:53:18;;;;;;;37.88;16.05;;;;;;;0.45;71.34;97777.13;2077733;28;20208;-58
2022/03/23 04:54:20;;;;;;;27.70;16.95;;;;;;;0.59;71.19;97788.16;2076286;28;20208;-58
2022/03/23 04:55:21;;;;;;;30.23;16.92;;;;;;;0.63;71.11;97778.66;2076577;28;20201;-58
2022/03/23 04:56:23;;;;;;;27.80;16.58;;;;;;;0.55;71.52;97790.78;2075866;28;20201;-58
2022/03/23 04:57:27;;;;;;;33.83;16.55;;;;;;;0.53;71.48;97783.06;2074344;28;20560;-58
2022/03/23 04:58:29;;;;;;;36.05;16.85;;;;;;;0.54;71.19;97789.91;2075385;28;20201;-58